sensor_id;sensor_type;location;lat;lon;timestamp;P1;durP1;ratioP1;P2;durP2;ratioP2
33826;SDS011;20128;45.582;5.298;2023-09-18T00:00:14;26.42;;;6.53;;
33826;SDS011;20128;45.582;5.298;2023-09-18T00:02:40;43.47;;;8.00;;
33826;SDS011;20128;45.582;5.298;2023-09-18T00:05:06;42.67;;;7.07;;
33826;SDS011;20128;45.582;5.298;2023-09-18T00:07:31;41.10;;;7.18;;
33826;SDS011;20128;45.582;5.298;2023-09-18T00:09:57;46.60;;;7.75;;
33826;SDS011;20128;45.582;5.298;2023-09-18T00:12:23;45.60;;;8.05;;
33826;SDS011;20128;45.582;5.298;2023-09-18T00:14:48;35.50;;;7.70;;
33826;SDS011;20128;45.582;5.298;2023-09-18T00:17:14;48.13;;;7.68;;
33826;SDS011;20128;45.582;5.298;2023-09-18T00:19:41;45.80;;;9.20;;
33826;SDS011;20128;45.582;5.298;2023-09-18T00:22:07;41.80;;;7.05;;
33826;SDS011;20128;45.582;5.298;2023-09-18T00:24:33;34.08;;;7.40;;
33826;SDS011;20128;45.582;5.298;2023-09-18T00:26:59;47.03;;;7.38;;
33826;SDS011;20128;45.582;5.298;2023-09-18T00:29:24;54.47;;;7.47;;
33826;SDS011;20128;45.582;5.298;2023-09-18T00:31:50;33.65;;;6.75;;
33826;SDS011;20128;45.582;5.298;2023-09-18T00:34:16;43.03;;;8.93;;
33826;SDS011;20128;45.582;5.298;2023-09-18T00:36:41;37.65;;;7.07;;
33826;SDS011;20128;45.582;5.298;2023-09-18T00:39:07;27.35;;;6.45;;
33826;SDS011;20128;45.582;5.298;2023-09-18T00:41:33;45.35;;;8.27;;
33826;SDS011;20128;45.582;5.298;2023-09-18T00:43:58;31.23;;;6.82;;
33826;SDS011;20128;45.582;5.298;2023-09-18T00:46:25;55.92;;;8.40;;
33826;SDS011;20128;45.582;5.298;2023-09-18T00:48:51;27.92;;;6.13;;
33826;SDS011;20128;45.582;5.298;2023-09-18T00:51:18;27.25;;;4.85;;
33826;SDS011;20128;45.582;5.298;2023-09-18T00:53:44;13.35;;;2.25;;
33826;SDS011;20128;45.582;5.298;2023-09-18T00:56:13;19.88;;;3.28;;
33826;SDS011;20128;45.582;5.298;2023-09-18T00:58:39;11.52;;;2.70;;
33826;SDS011;20128;45.582;5.298;2023-09-18T01:01:05;14.32;;;2.05;;
33826;SDS011;20128;45.582;5.298;2023-09-18T01:03:31;11.57;;;2.03;;
33826;SDS011;20128;45.582;5.298;2023-09-18T01:05:57;17.23;;;2.38;;
33826;SDS011;20128;45.582;5.298;2023-09-18T01:08:23;8.10;;;1.63;;
33826;SDS011;20128;45.582;5.298;2023-09-18T01:10:53;9.85;;;1.40;;
33826;SDS011;20128;45.582;5.298;2023-09-18T01:13:35;9.77;;;1.60;;
33826;SDS011;20128;45.582;5.298;2023-09-18T01:16:10;5.40;;;1.13;;
33826;SDS011;20128;45.582;5.298;2023-09-18T01:18:48;11.45;;;2.35;;
33826;SDS011;20128;45.582;5.298;2023-09-18T01:21:15;7.65;;;2.30;;
33826;SDS011;20128;45.582;5.298;2023-09-18T01:23:41;6.93;;;1.88;;
33826;SDS011;20128;45.582;5.298;2023-09-18T01:26:07;8.15;;;1.92;;
33826;SDS011;20128;45.582;5.298;2023-09-18T01:28:33;8.50;;;2.47;;
33826;SDS011;20128;45.582;5.298;2023-09-18T01:30:58;11.25;;;2.63;;
33826;SDS011;20128;45.582;5.298;2023-09-18T01:33:24;10.38;;;1.40;;
33826;SDS011;20128;45.582;5.298;2023-09-18T01:35:52;4.03;;;1.10;;
33826;SDS011;20128;45.582;5.298;2023-09-18T01:38:20;8.38;;;1.52;;
33826;SDS011;20128;45.582;5.298;2023-09-18T01:40:48;6.97;;;1.50;;
33826;SDS011;20128;45.582;5.298;2023-09-18T01:43:14;2.90;;;1.02;;
33826;SDS011;20128;45.582;5.298;2023-09-18T01:45:39;7.53;;;1.67;;
33826;SDS011;20128;45.582;5.298;2023-09-18T01:48:06;4.93;;;1.35;;
33826;SDS011;20128;45.582;5.298;2023-09-18T01:50:32;9.20;;;1.77;;
33826;SDS011;20128;45.582;5.298;2023-09-18T01:52:58;3.63;;;1.27;;
33826;SDS011;20128;45.582;5.298;2023-09-18T01:55:24;13.70;;;2.15;;
33826;SDS011;20128;45.582;5.298;2023-09-18T01:57:49;7.85;;;1.85;;
33826;SDS011;20128;45.582;5.298;2023-09-18T02:00:15;4.85;;;1.73;;
33826;SDS011;20128;45.582;5.298;2023-09-18T02:02:41;9.07;;;2.45;;
33826;SDS011;20128;45.582;5.298;2023-09-18T02:05:07;7.97;;;1.00;;
33826;SDS011;20128;45.582;5.298;2023-09-18T02:07:32;5.88;;;0.90;;
33826;SDS011;20128;45.582;5.298;2023-09-18T02:09:58;5.57;;;1.20;;
33826;SDS011;20128;45.582;5.298;2023-09-18T02:12:24;5.40;;;1.77;;
33826;SDS011;20128;45.582;5.298;2023-09-18T02:14:50;2.25;;;1.08;;
33826;SDS011;20128;45.582;5.298;2023-09-18T02:17:15;3.55;;;1.20;;
33826;SDS011;20128;45.582;5.298;2023-09-18T02:19:41;2.97;;;0.88;;
33826;SDS011;20128;45.582;5.298;2023-09-18T02:22:08;4.63;;;0.75;;
33826;SDS011;20128;45.582;5.298;2023-09-18T02:24:33;8.88;;;1.45;;
33826;SDS011;20128;45.582;5.298;2023-09-18T02:26:59;9.43;;;1.83;;
33826;SDS011;20128;45.582;5.298;2023-09-18T02:29:24;8.30;;;1.38;;
33826;SDS011;20128;45.582;5.298;2023-09-18T02:31:50;7.93;;;1.67;;
33826;SDS011;20128;45.582;5.298;2023-09-18T02:34:16;7.20;;;1.48;;
33826;SDS011;20128;45.582;5.298;2023-09-18T02:36:44;8.02;;;1.65;;
33826;SDS011;20128;45.582;5.298;2023-09-18T02:39:09;12.13;;;1.95;;
33826;SDS011;20128;45.582;5.298;2023-09-18T02:41:35;9.35;;;1.67;;
33826;SDS011;20128;45.582;5.298;2023-09-18T02:44:00;9.43;;;1.48;;
33826;SDS011;20128;45.582;5.298;2023-09-18T02:46:26;7.47;;;1.80;;
33826;SDS011;20128;45.582;5.298;2023-09-18T02:48:52;9.52;;;1.40;;
33826;SDS011;20128;45.582;5.298;2023-09-18T02:51:17;5.63;;;1.30;;
33826;SDS011;20128;45.582;5.298;2023-09-18T02:53:44;11.98;;;1.83;;
33826;SDS011;20128;45.582;5.298;2023-09-18T02:56:10;11.70;;;1.92;;
33826;SDS011;20128;45.582;5.298;2023-09-18T02:58:35;5.85;;;2.38;;
33826;SDS011;20128;45.582;5.298;2023-09-18T03:01:01;8.68;;;2.30;;
33826;SDS011;20128;45.582;5.298;2023-09-18T03:03:28;9.27;;;1.75;;
33826;SDS011;20128;45.582;5.298;2023-09-18T03:06:00;8.38;;;1.58;;
33826;SDS011;20128;45.582;5.298;2023-09-18T03:08:27;7.53;;;1.58;;
33826;SDS011;20128;45.582;5.298;2023-09-18T03:10:53;9.98;;;3.15;;
33826;SDS011;20128;45.582;5.298;2023-09-18T03:13:19;13.07;;;2.03;;
33826;SDS011;20128;45.582;5.298;2023-09-18T03:15:46;11.57;;;2.40;;
33826;SDS011;20128;45.582;5.298;2023-09-18T03:18:12;11.43;;;2.97;;
33826;SDS011;20128;45.582;5.298;2023-09-18T03:20:38;10.65;;;2.00;;
33826;SDS011;20128;45.582;5.298;2023-09-18T03:23:04;12.95;;;2.22;;
33826;SDS011;20128;45.582;5.298;2023-09-18T03:25:29;16.25;;;2.70;;
33826;SDS011;20128;45.582;5.298;2023-09-18T03:27:56;16.63;;;2.78;;
33826;SDS011;20128;45.582;5.298;2023-09-18T03:30:23;10.55;;;3.20;;
33826;SDS011;20128;45.582;5.298;2023-09-18T03:32:51;18.00;;;3.05;;
33826;SDS011;20128;45.582;5.298;2023-09-18T03:35:18;14.30;;;3.35;;
33826;SDS011;20128;45.582;5.298;2023-09-18T03:37:45;17.10;;;3.85;;
33826;SDS011;20128;45.582;5.298;2023-09-18T03:40:19;23.20;;;4.18;;
33826;SDS011;20128;45.582;5.298;2023-09-18T03:42:45;24.42;;;4.85;;
33826;SDS011;20128;45.582;5.298;2023-09-18T03:45:11;16.63;;;3.95;;
33826;SDS011;20128;45.582;5.298;2023-09-18T03:47:38;15.05;;;3.63;;
33826;SDS011;20128;45.582;5.298;2023-09-18T03:50:08;15.68;;;3.58;;
33826;SDS011;20128;45.582;5.298;2023-09-18T03:52:34;20.20;;;2.92;;
33826;SDS011;20128;45.582;5.298;2023-09-18T03:55:00;24.00;;;3.33;;
33826;SDS011;20128;45.582;5.298;2023-09-18T03:57:26;23.58;;;5.10;;
33826;SDS011;20128;45.582;5.298;2023-09-18T03:59:52;28.30;;;4.38;;
33826;SDS011;20128;45.582;5.298;2023-09-18T04:02:17;22.55;;;4.10;;
33826;SDS011;20128;45.582;5.298;2023-09-18T04:04:43;17.17;;;4.00;;
33826;SDS011;20128;45.582;5.298;2023-09-18T04:07:09;25.85;;;4.20;;
33826;SDS011;20128;45.582;5.298;2023-09-18T04:09:35;18.77;;;4.20;;
33826;SDS011;20128;45.582;5.298;2023-09-18T04:12:01;20.25;;;4.15;;
33826;SDS011;20128;45.582;5.298;2023-09-18T04:14:27;21.80;;;4.47;;
33826;SDS011;20128;45.582;5.298;2023-09-18T04:16:53;12.82;;;4.35;;
33826;SDS011;20128;45.582;5.298;2023-09-18T04:19:19;30.80;;;4.53;;
33826;SDS011;20128;45.582;5.298;2023-09-18T04:21:44;23.10;;;5.20;;
33826;SDS011;20128;45.582;5.298;2023-09-18T04:24:10;21.40;;;4.53;;
33826;SDS011;20128;45.582;5.298;2023-09-18T04:26:35;15.00;;;4.57;;
33826;SDS011;20128;45.582;5.298;2023-09-18T04:29:02;14.07;;;4.32;;
33826;SDS011;20128;45.582;5.298;2023-09-18T04:31:28;13.27;;;3.78;;
33826;SDS011;20128;45.582;5.298;2023-09-18T04:33:54;19.80;;;4.32;;
33826;SDS011;20128;45.582;5.298;2023-09-18T04:36:20;15.98;;;4.10;;
33826;SDS011;20128;45.582;5.298;2023-09-18T04:38:46;17.58;;;4.35;;
33826;SDS011;20128;45.582;5.298;2023-09-18T04:41:11;16.55;;;5.07;;
33826;SDS011;20128;45.582;5.298;2023-09-18T04:43:39;15.80;;;3.40;;
33826;SDS011;20128;45.582;5.298;2023-09-18T04:46:06;13.43;;;3.40;;
33826;SDS011;20128;45.582;5.298;2023-09-18T04:48:31;15.73;;;3.58;;
33826;SDS011;20128;45.582;5.298;2023-09-18T04:50:58;11.85;;;3.03;;
33826;SDS011;20128;45.582;5.298;2023-09-18T04:53:24;19.02;;;3.60;;
33826;SDS011;20128;45.582;5.298;2023-09-18T04:55:50;17.92;;;3.85;;
33826;SDS011;20128;45.582;5.298;2023-09-18T04:58:16;10.82;;;3.72;;
33826;SDS011;20128;45.582;5.298;2023-09-18T05:00:42;13.88;;;3.67;;
33826;SDS011;20128;45.582;5.298;2023-09-18T05:03:08;11.15;;;3.38;;
33826;SDS011;20128;45.582;5.298;2023-09-18T05:05:35;10.93;;;2.97;;
33826;SDS011;20128;45.582;5.298;2023-09-18T05:08:01;12.85;;;3.20;;
33826;SDS011;20128;45.582;5.298;2023-09-18T05:10:28;12.93;;;3.30;;
33826;SDS011;20128;45.582;5.298;2023-09-18T05:12:54;19.95;;;3.85;;
33826;SDS011;20128;45.582;5.298;2023-09-18T05:15:23;14.50;;;2.80;;
33826;SDS011;20128;45.582;5.298;2023-09-18T05:17:51;9.10;;;2.88;;
33826;SDS011;20128;45.582;5.298;2023-09-18T05:20:21;9.02;;;3.00;;
33826;SDS011;20128;45.582;5.298;2023-09-18T05:22:49;10.18;;;2.55;;
33826;SDS011;20128;45.582;5.298;2023-09-18T05:25:18;9.07;;;2.42;;
33826;SDS011;20128;45.582;5.298;2023-09-18T05:27:44;10.13;;;2.35;;
33826;SDS011;20128;45.582;5.298;2023-09-18T05:30:10;8.50;;;2.58;;
33826;SDS011;20128;45.582;5.298;2023-09-18T05:32:38;9.05;;;1.80;;
33826;SDS011;20128;45.582;5.298;2023-09-18T05:35:04;9.73;;;2.05;;
33826;SDS011;20128;45.582;5.298;2023-09-18T05:37:31;9.15;;;2.15;;
33826;SDS011;20128;45.582;5.298;2023-09-18T05:39:57;4.18;;;1.65;;
33826;SDS011;20128;45.582;5.298;2023-09-18T05:42:23;8.77;;;2.40;;
33826;SDS011;20128;45.582;5.298;2023-09-18T05:44:49;6.95;;;2.13;;
33826;SDS011;20128;45.582;5.298;2023-09-18T05:47:15;12.73;;;2.58;;
33826;SDS011;20128;45.582;5.298;2023-09-18T05:49:40;11.32;;;2.35;;
33826;SDS011;20128;45.582;5.298;2023-09-18T05:52:06;6.03;;;2.45;;
33826;SDS011;20128;45.582;5.298;2023-09-18T05:54:31;11.93;;;3.00;;
33826;SDS011;20128;45.582;5.298;2023-09-18T05:56:57;11.95;;;1.88;;
33826;SDS011;20128;45.582;5.298;2023-09-18T05:59:23;10.48;;;2.80;;
33826;SDS011;20128;45.582;5.298;2023-09-18T06:01:48;8.90;;;2.00;;
33826;SDS011;20128;45.582;5.298;2023-09-18T06:04:14;9.88;;;2.22;;
33826;SDS011;20128;45.582;5.298;2023-09-18T06:06:41;6.85;;;1.98;;
33826;SDS011;20128;45.582;5.298;2023-09-18T06:09:07;10.82;;;2.40;;
33826;SDS011;20128;45.582;5.298;2023-09-18T06:11:33;7.43;;;1.80;;
33826;SDS011;20128;45.582;5.298;2023-09-18T06:13:59;8.07;;;2.47;;
33826;SDS011;20128;45.582;5.298;2023-09-18T06:16:24;8.43;;;2.22;;
33826;SDS011;20128;45.582;5.298;2023-09-18T06:18:50;7.97;;;2.10;;
33826;SDS011;20128;45.582;5.298;2023-09-18T06:21:16;6.40;;;2.10;;
33826;SDS011;20128;45.582;5.298;2023-09-18T06:23:41;6.80;;;2.20;;
33826;SDS011;20128;45.582;5.298;2023-09-18T06:26:07;7.35;;;2.92;;
33826;SDS011;20128;45.582;5.298;2023-09-18T06:28:33;9.90;;;2.17;;
33826;SDS011;20128;45.582;5.298;2023-09-18T06:30:58;10.00;;;2.33;;
33826;SDS011;20128;45.582;5.298;2023-09-18T06:33:24;5.93;;;1.88;;
33826;SDS011;20128;45.582;5.298;2023-09-18T06:35:49;6.97;;;2.63;;
33826;SDS011;20128;45.582;5.298;2023-09-18T06:38:16;3.70;;;1.60;;
33826;SDS011;20128;45.582;5.298;2023-09-18T06:40:42;6.32;;;1.95;;
33826;SDS011;20128;45.582;5.298;2023-09-18T06:43:08;8.40;;;2.13;;
33826;SDS011;20128;45.582;5.298;2023-09-18T06:45:33;9.80;;;1.85;;
33826;SDS011;20128;45.582;5.298;2023-09-18T06:47:59;5.82;;;1.45;;
33826;SDS011;20128;45.582;5.298;2023-09-18T06:50:28;7.05;;;1.20;;
33826;SDS011;20128;45.582;5.298;2023-09-18T06:52:54;5.47;;;1.48;;
33826;SDS011;20128;45.582;5.298;2023-09-18T06:55:19;4.70;;;1.70;;
33826;SDS011;20128;45.582;5.298;2023-09-18T06:57:45;2.83;;;1.00;;
33826;SDS011;20128;45.582;5.298;2023-09-18T07:00:12;4.55;;;1.30;;
33826;SDS011;20128;45.582;5.298;2023-09-18T07:02:40;8.88;;;1.88;;
33826;SDS011;20128;45.582;5.298;2023-09-18T07:05:05;5.55;;;1.17;;
33826;SDS011;20128;45.582;5.298;2023-09-18T07:07:31;4.03;;;1.10;;
33826;SDS011;20128;45.582;5.298;2023-09-18T07:09:57;3.90;;;1.17;;
33826;SDS011;20128;45.582;5.298;2023-09-18T07:12:23;8.63;;;1.15;;
33826;SDS011;20128;45.582;5.298;2023-09-18T07:14:49;8.75;;;1.35;;
33826;SDS011;20128;45.582;5.298;2023-09-18T07:17:14;4.18;;;1.20;;
33826;SDS011;20128;45.582;5.298;2023-09-18T07:19:40;7.30;;;1.35;;
33826;SDS011;20128;45.582;5.298;2023-09-18T07:22:06;3.92;;;1.52;;
33826;SDS011;20128;45.582;5.298;2023-09-18T07:24:31;5.10;;;1.23;;
33826;SDS011;20128;45.582;5.298;2023-09-18T07:26:57;3.83;;;1.30;;
33826;SDS011;20128;45.582;5.298;2023-09-18T07:29:23;5.30;;;1.63;;
33826;SDS011;20128;45.582;5.298;2023-09-18T07:31:50;9.57;;;2.17;;
33826;SDS011;20128;45.582;5.298;2023-09-18T07:34:16;11.45;;;2.13;;
33826;SDS011;20128;45.582;5.298;2023-09-18T07:36:42;9.18;;;2.03;;
33826;SDS011;20128;45.582;5.298;2023-09-18T07:39:09;8.80;;;2.10;;
33826;SDS011;20128;45.582;5.298;2023-09-18T07:41:36;5.95;;;1.75;;
33826;SDS011;20128;45.582;5.298;2023-09-18T07:44:02;5.45;;;2.10;;
33826;SDS011;20128;45.582;5.298;2023-09-18T07:46:28;8.23;;;2.08;;
33826;SDS011;20128;45.582;5.298;2023-09-18T07:48:54;13.30;;;2.17;;
33826;SDS011;20128;45.582;5.298;2023-09-18T07:51:20;12.13;;;2.55;;
33826;SDS011;20128;45.582;5.298;2023-09-18T07:53:46;10.88;;;2.67;;
33826;SDS011;20128;45.582;5.298;2023-09-18T07:56:11;7.50;;;3.00;;
33826;SDS011;20128;45.582;5.298;2023-09-18T07:58:37;7.93;;;3.03;;
33826;SDS011;20128;45.582;5.298;2023-09-18T08:01:04;10.38;;;3.22;;
33826;SDS011;20128;45.582;5.298;2023-09-18T08:03:30;7.72;;;2.50;;
33826;SDS011;20128;45.582;5.298;2023-09-18T08:05:59;4.93;;;1.92;;
33826;SDS011;20128;45.582;5.298;2023-09-18T08:08:25;9.57;;;2.20;;
33826;SDS011;20128;45.582;5.298;2023-09-18T08:10:51;10.18;;;2.15;;
33826;SDS011;20128;45.582;5.298;2023-09-18T08:13:17;6.47;;;1.45;;
33826;SDS011;20128;45.582;5.298;2023-09-18T08:15:44;5.47;;;1.85;;
33826;SDS011;20128;45.582;5.298;2023-09-18T08:18:10;6.90;;;1.38;;
33826;SDS011;20128;45.582;5.298;2023-09-18T08:25:30;4.72;;;1.40;;
33826;SDS011;20128;45.582;5.298;2023-09-18T08:27:56;5.35;;;1.60;;
33826;SDS011;20128;45.582;5.298;2023-09-18T08:30:21;7.25;;;1.63;;
33826;SDS011;20128;45.582;5.298;2023-09-18T08:32:47;5.28;;;1.80;;
33826;SDS011;20128;45.582;5.298;2023-09-18T08:35:13;8.80;;;2.45;;
33826;SDS011;20128;45.582;5.298;2023-09-18T08:37:42;3.83;;;1.55;;
33826;SDS011;20128;45.582;5.298;2023-09-18T08:40:12;9.65;;;1.80;;
33826;SDS011;20128;45.582;5.298;2023-09-18T08:42:41;5.55;;;2.10;;
33826;SDS011;20128;45.582;5.298;2023-09-18T08:45:12;10.95;;;2.75;;
33826;SDS011;20128;45.582;5.298;2023-09-18T08:47:48;11.05;;;3.00;;
33826;SDS011;20128;45.582;5.298;2023-09-18T08:50:14;13.80;;;3.05;;
33826;SDS011;20128;45.582;5.298;2023-09-18T08:52:40;7.07;;;2.60;;
33826;SDS011;20128;45.582;5.298;2023-09-18T08:55:07;8.13;;;2.40;;
33826;SDS011;20128;45.582;5.298;2023-09-18T08:57:34;10.02;;;2.25;;
33826;SDS011;20128;45.582;5.298;2023-09-18T09:00:01;9.10;;;2.65;;
33826;SDS011;20128;45.582;5.298;2023-09-18T09:02:32;10.38;;;2.50;;
33826;SDS011;20128;45.582;5.298;2023-09-18T09:04:58;10.60;;;2.83;;
33826;SDS011;20128;45.582;5.298;2023-09-18T09:07:24;7.85;;;2.92;;
33826;SDS011;20128;45.582;5.298;2023-09-18T09:09:51;8.52;;;2.80;;
33826;SDS011;20128;45.582;5.298;2023-09-18T09:12:18;8.23;;;2.50;;
33826;SDS011;20128;45.582;5.298;2023-09-18T09:15:27;6.07;;;2.40;;
33826;SDS011;20128;45.582;5.298;2023-09-18T09:18:04;9.45;;;2.85;;
33826;SDS011;20128;45.582;5.298;2023-09-18T09:20:31;4.88;;;2.35;;
33826;SDS011;20128;45.582;5.298;2023-09-18T09:23:02;10.57;;;2.40;;
33826;SDS011;20128;45.582;5.298;2023-09-18T09:25:29;6.28;;;1.83;;
33826;SDS011;20128;45.582;5.298;2023-09-18T09:27:57;7.78;;;2.20;;
33826;SDS011;20128;45.582;5.298;2023-09-18T09:30:25;6.28;;;2.20;;
33826;SDS011;20128;45.582;5.298;2023-09-18T09:32:52;8.88;;;2.55;;
33826;SDS011;20128;45.582;5.298;2023-09-18T09:35:24;8.80;;;2.58;;
33826;SDS011;20128;45.582;5.298;2023-09-18T09:37:52;8.30;;;2.63;;
33826;SDS011;20128;45.582;5.298;2023-09-18T09:40:22;16.10;;;2.83;;
33826;SDS011;20128;45.582;5.298;2023-09-18T09:42:50;39.38;;;5.35;;
33826;SDS011;20128;45.582;5.298;2023-09-18T09:45:19;24.38;;;3.20;;
33826;SDS011;20128;45.582;5.298;2023-09-18T09:47:45;13.95;;;2.53;;
33826;SDS011;20128;45.582;5.298;2023-09-18T09:50:14;15.93;;;2.40;;
33826;SDS011;20128;45.582;5.298;2023-09-18T09:52:50;5.15;;;1.75;;
33826;SDS011;20128;45.582;5.298;2023-09-18T09:55:18;5.38;;;1.98;;
33826;SDS011;20128;45.582;5.298;2023-09-18T09:57:54;6.68;;;2.38;;
33826;SDS011;20128;45.582;5.298;2023-09-18T10:00:23;9.43;;;2.50;;
33826;SDS011;20128;45.582;5.298;2023-09-18T10:05:27;3.17;;;1.80;;
33826;SDS011;20128;45.582;5.298;2023-09-18T10:07:58;4.53;;;2.10;;
33826;SDS011;20128;45.582;5.298;2023-09-18T10:10:31;7.22;;;2.30;;
33826;SDS011;20128;45.582;5.298;2023-09-18T10:13:03;5.15;;;2.28;;
33826;SDS011;20128;45.582;5.298;2023-09-18T10:15:34;6.35;;;2.15;;
33826;SDS011;20128;45.582;5.298;2023-09-18T10:18:04;11.80;;;2.00;;
33826;SDS011;20128;45.582;5.298;2023-09-18T10:20:36;6.80;;;2.05;;
33826;SDS011;20128;45.582;5.298;2023-09-18T10:23:09;9.45;;;2.28;;
33826;SDS011;20128;45.582;5.298;2023-09-18T10:25:48;3.70;;;1.52;;
33826;SDS011;20128;45.582;5.298;2023-09-18T10:28:19;8.02;;;2.10;;
33826;SDS011;20128;45.582;5.298;2023-09-18T10:30:47;7.22;;;2.38;;
33826;SDS011;20128;45.582;5.298;2023-09-18T10:33:15;12.90;;;2.88;;
33826;SDS011;20128;45.582;5.298;2023-09-18T10:35:41;9.07;;;2.05;;
33826;SDS011;20128;45.582;5.298;2023-09-18T10:38:08;9.10;;;2.00;;
33826;SDS011;20128;45.582;5.298;2023-09-18T10:40:36;10.93;;;2.17;;
33826;SDS011;20128;45.582;5.298;2023-09-18T10:43:02;4.95;;;2.10;;
33826;SDS011;20128;45.582;5.298;2023-09-18T10:45:30;8.15;;;2.30;;
33826;SDS011;20128;45.582;5.298;2023-09-18T10:47:56;7.60;;;1.90;;
33826;SDS011;20128;45.582;5.298;2023-09-18T10:50:23;6.25;;;1.73;;
33826;SDS011;20128;45.582;5.298;2023-09-18T10:52:50;5.70;;;1.52;;
33826;SDS011;20128;45.582;5.298;2023-09-18T10:55:16;7.03;;;1.92;;
33826;SDS011;20128;45.582;5.298;2023-09-18T10:57:49;5.05;;;1.75;;
33826;SDS011;20128;45.582;5.298;2023-09-18T11:00:16;5.90;;;2.58;;
33826;SDS011;20128;45.582;5.298;2023-09-18T11:02:47;9.20;;;3.20;;
33826;SDS011;20128;45.582;5.298;2023-09-18T11:05:30;8.52;;;2.65;;
33826;SDS011;20128;45.582;5.298;2023-09-18T11:10:58;10.82;;;2.85;;
33826;SDS011;20128;45.582;5.298;2023-09-18T11:13:29;3.58;;;2.30;;
33826;SDS011;20128;45.582;5.298;2023-09-18T11:16:14;9.23;;;2.20;;
33826;SDS011;20128;45.582;5.298;2023-09-18T11:19:05;8.15;;;2.22;;
33826;SDS011;20128;45.582;5.298;2023-09-18T11:24:04;10.43;;;2.60;;
33826;SDS011;20128;45.582;5.298;2023-09-18T11:26:32;11.02;;;2.60;;
33826;SDS011;20128;45.582;5.298;2023-09-18T11:29:00;8.98;;;2.35;;
33826;SDS011;20128;45.582;5.298;2023-09-18T11:31:43;9.07;;;2.42;;
33826;SDS011;20128;45.582;5.298;2023-09-18T11:34:18;10.10;;;3.00;;
33826;SDS011;20128;45.582;5.298;2023-09-18T11:36:44;7.57;;;1.98;;
33826;SDS011;20128;45.582;5.298;2023-09-18T11:39:11;5.95;;;1.65;;
33826;SDS011;20128;45.582;5.298;2023-09-18T11:41:37;7.93;;;2.15;;
33826;SDS011;20128;45.582;5.298;2023-09-18T11:46:36;6.75;;;2.10;;
33826;SDS011;20128;45.582;5.298;2023-09-18T11:49:05;5.57;;;2.65;;
33826;SDS011;20128;45.582;5.298;2023-09-18T11:51:34;5.60;;;2.30;;
33826;SDS011;20128;45.582;5.298;2023-09-18T11:54:01;7.85;;;1.98;;
33826;SDS011;20128;45.582;5.298;2023-09-18T11:56:29;5.97;;;2.13;;
33826;SDS011;20128;45.582;5.298;2023-09-18T11:59:04;11.38;;;2.40;;
33826;SDS011;20128;45.582;5.298;2023-09-18T12:01:31;5.60;;;2.05;;
33826;SDS011;20128;45.582;5.298;2023-09-18T12:04:01;5.68;;;2.00;;
33826;SDS011;20128;45.582;5.298;2023-09-18T12:06:32;10.00;;;2.20;;
33826;SDS011;20128;45.582;5.298;2023-09-18T12:08:59;12.85;;;2.10;;
33826;SDS011;20128;45.582;5.298;2023-09-18T12:11:24;5.95;;;1.83;;
33826;SDS011;20128;45.582;5.298;2023-09-18T12:13:51;7.35;;;2.22;;
33826;SDS011;20128;45.582;5.298;2023-09-18T12:16:17;8.65;;;1.52;;
33826;SDS011;20128;45.582;5.298;2023-09-18T12:18:47;6.22;;;1.35;;
33826;SDS011;20128;45.582;5.298;2023-09-18T12:21:13;4.00;;;1.45;;
33826;SDS011;20128;45.582;5.298;2023-09-18T12:23:40;7.35;;;1.92;;
33826;SDS011;20128;45.582;5.298;2023-09-18T12:26:09;7.35;;;1.80;;
33826;SDS011;20128;45.582;5.298;2023-09-18T12:28:38;8.82;;;1.40;;
33826;SDS011;20128;45.582;5.298;2023-09-18T12:31:11;2.80;;;1.50;;
33826;SDS011;20128;45.582;5.298;2023-09-18T12:33:38;7.78;;;1.90;;
33826;SDS011;20128;45.582;5.298;2023-09-18T12:36:05;9.05;;;2.00;;
33826;SDS011;20128;45.582;5.298;2023-09-18T12:38:32;6.10;;;2.10;;
33826;SDS011;20128;45.582;5.298;2023-09-18T12:41:01;3.55;;;1.80;;
33826;SDS011;20128;45.582;5.298;2023-09-18T12:43:40;6.87;;;1.70;;
33826;SDS011;20128;45.582;5.298;2023-09-18T12:46:07;5.80;;;2.08;;
33826;SDS011;20128;45.582;5.298;2023-09-18T12:48:40;7.20;;;2.15;;
33826;SDS011;20128;45.582;5.298;2023-09-18T12:51:10;3.33;;;1.63;;
33826;SDS011;20128;45.582;5.298;2023-09-18T12:53:36;3.95;;;1.88;;
33826;SDS011;20128;45.582;5.298;2023-09-18T12:58:38;8.75;;;2.30;;
33826;SDS011;20128;45.582;5.298;2023-09-18T13:01:05;6.13;;;2.25;;
33826;SDS011;20128;45.582;5.298;2023-09-18T13:03:45;6.55;;;2.85;;
33826;SDS011;20128;45.582;5.298;2023-09-18T13:06:12;7.32;;;2.00;;
33826;SDS011;20128;45.582;5.298;2023-09-18T13:08:44;8.03;;;2.20;;
33826;SDS011;20128;45.582;5.298;2023-09-18T13:11:11;6.28;;;2.22;;
33826;SDS011;20128;45.582;5.298;2023-09-18T13:13:39;11.60;;;2.05;;
33826;SDS011;20128;45.582;5.298;2023-09-18T13:16:06;4.72;;;1.67;;
33826;SDS011;20128;45.582;5.298;2023-09-18T13:18:34;9.60;;;2.00;;
33826;SDS011;20128;45.582;5.298;2023-09-18T13:20:59;9.55;;;2.08;;
33826;SDS011;20128;45.582;5.298;2023-09-18T13:23:32;9.38;;;2.30;;
33826;SDS011;20128;45.582;5.298;2023-09-18T13:26:04;12.25;;;2.53;;
33826;SDS011;20128;45.582;5.298;2023-09-18T13:28:32;5.70;;;2.42;;
33826;SDS011;20128;45.582;5.298;2023-09-18T13:31:01;10.32;;;2.53;;
33826;SDS011;20128;45.582;5.298;2023-09-18T13:33:30;8.55;;;2.03;;
33826;SDS011;20128;45.582;5.298;2023-09-18T13:35:57;8.82;;;2.00;;
33826;SDS011;20128;45.582;5.298;2023-09-18T13:38:24;3.20;;;1.77;;
33826;SDS011;20128;45.582;5.298;2023-09-18T13:40:51;6.82;;;1.85;;
33826;SDS011;20128;45.582;5.298;2023-09-18T13:43:18;3.63;;;1.63;;
33826;SDS011;20128;45.582;5.298;2023-09-18T13:45:47;5.78;;;1.95;;
33826;SDS011;20128;45.582;5.298;2023-09-18T13:48:12;4.05;;;1.50;;
33826;SDS011;20128;45.582;5.298;2023-09-18T13:50:40;6.50;;;1.90;;
33826;SDS011;20128;45.582;5.298;2023-09-18T13:53:05;4.68;;;1.77;;
33826;SDS011;20128;45.582;5.298;2023-09-18T13:55:32;4.85;;;1.65;;
33826;SDS011;20128;45.582;5.298;2023-09-18T13:57:59;5.38;;;1.80;;
33826;SDS011;20128;45.582;5.298;2023-09-18T14:00:25;5.93;;;2.13;;
33826;SDS011;20128;45.582;5.298;2023-09-18T14:02:51;11.23;;;2.22;;
33826;SDS011;20128;45.582;5.298;2023-09-18T14:05:17;4.32;;;1.50;;
33826;SDS011;20128;45.582;5.298;2023-09-18T14:07:44;5.93;;;1.80;;
33826;SDS011;20128;45.582;5.298;2023-09-18T14:10:09;5.25;;;1.98;;
33826;SDS011;20128;45.582;5.298;2023-09-18T14:12:36;5.03;;;1.92;;
33826;SDS011;20128;45.582;5.298;2023-09-18T14:15:07;8.20;;;2.00;;
33826;SDS011;20128;45.582;5.298;2023-09-18T14:17:34;5.55;;;2.03;;
33826;SDS011;20128;45.582;5.298;2023-09-18T14:20:00;7.47;;;1.75;;
33826;SDS011;20128;45.582;5.298;2023-09-18T14:22:31;7.60;;;2.10;;
33826;SDS011;20128;45.582;5.298;2023-09-18T14:24:57;12.15;;;1.88;;
33826;SDS011;20128;45.582;5.298;2023-09-18T14:27:23;5.68;;;2.10;;
33826;SDS011;20128;45.582;5.298;2023-09-18T14:29:48;9.05;;;2.17;;
33826;SDS011;20128;45.582;5.298;2023-09-18T14:32:14;9.23;;;2.10;;
33826;SDS011;20128;45.582;5.298;2023-09-18T14:34:40;5.53;;;1.98;;
33826;SDS011;20128;45.582;5.298;2023-09-18T14:37:06;6.97;;;1.90;;
33826;SDS011;20128;45.582;5.298;2023-09-18T14:39:32;8.05;;;2.17;;
33826;SDS011;20128;45.582;5.298;2023-09-18T14:41:58;7.80;;;2.03;;
33826;SDS011;20128;45.582;5.298;2023-09-18T14:44:27;5.90;;;1.75;;
33826;SDS011;20128;45.582;5.298;2023-09-18T14:46:53;7.13;;;2.17;;
33826;SDS011;20128;45.582;5.298;2023-09-18T14:49:20;6.57;;;2.35;;
33826;SDS011;20128;45.582;5.298;2023-09-18T14:51:45;10.25;;;2.25;;
33826;SDS011;20128;45.582;5.298;2023-09-18T14:54:12;10.27;;;2.25;;
33826;SDS011;20128;45.582;5.298;2023-09-18T14:56:39;8.38;;;2.33;;
33826;SDS011;20128;45.582;5.298;2023-09-18T14:59:05;6.47;;;2.35;;
33826;SDS011;20128;45.582;5.298;2023-09-18T15:01:32;8.50;;;1.98;;